General Aviation Weather

Text Reports

Enter one or more of the following location identifiers separated by a space:

Zip Code, Four-Character ICAO or Three-Character IATA airport codes.

METAR - Aviation Routine Weather Report
KSLB - Storm Lake, Iowa
Updated at 1:35 AM GMT on April 25, 2014 (8:35 PM CDT):
METAR KSLB 250135Z AUTO 00000KT 10SM CLR 11/07 A2976 RMK AO2
TAF - Terminal Area Forecast
KSLB - Storm Lake, Iowa
Updated at 1:35 AM GMT on April 25, 2014 (8:35 PM CDT):
No TAF is currently available for this location.
Decoded:
No decoded TAF is available.
PIREP - Pilot Weather Report
KSLB - Storm Lake, Iowa
Updated at 1:35 AM GMT on April 25, 2014 (8:35 PM CDT):
No PIREP is currently available for this location.
AIRMET - Airmens Meteorological Information
KSLB - Storm Lake, Iowa
Updated at 1:35 AM GMT on April 25, 2014 (8:35 PM CDT):
No AIRMET is currently available for this location.
SIGMET - Significant Meteorological Information
KSLB - Storm Lake, Iowa
Updated at 1:35 AM GMT on April 25, 2014 (8:35 PM CDT):
No SIGMET is currently available for this location.
NOTAM - Notice to Airmen
KSLB - Storm Lake, Iowa
Updated at 1:35 AM GMT on April 25, 2014 (8:35 PM CDT):
No NOTAM is currently available for this location.
Forecast Area
KSLB - Storm Lake, Iowa
Updated at 1:35 AM GMT on April 25, 2014 (8:35 PM CDT):
No NOTAM is currently available for this location.
Aviation Weather Maps